createdAt,value
2023-05-04T07:02:39.740Z,100822.59
2023-05-04T07:05:44.565Z,100830.69
2023-05-04T07:08:46.969Z,100829.16
2023-05-04T07:11:49.603Z,100830.19
2023-05-04T07:14:52.046Z,100830.88
2023-05-04T07:17:56.062Z,100830.37
2023-05-04T07:21:10.702Z,100825.94
2023-05-04T07:24:20.802Z,100824.53
2023-05-04T07:27:23.269Z,100828.06
2023-05-04T07:30:26.321Z,100837.81
2023-05-04T07:33:30.371Z,100841.31
2023-05-04T07:36:34.940Z,100834.84
2023-05-04T07:39:38.710Z,100842.53
2023-05-04T07:42:42.126Z,100840.81
2023-05-04T07:45:44.550Z,100845.72
2023-05-04T07:48:49.399Z,100841.50
2023-05-04T07:51:51.884Z,100837.44
2023-05-04T07:54:54.556Z,100839.06
2023-05-04T07:57:57.223Z,100838.16
2023-05-04T08:00:59.881Z,100838.03
2023-05-04T08:04:04.220Z,100834.72
2023-05-04T08:07:06.706Z,100835.72
2023-05-04T08:10:10.325Z,100832.09
2023-05-04T08:13:12.833Z,100834.44
2023-05-04T08:16:15.613Z,100844.38
2023-05-04T08:19:20.234Z,100842.53
2023-05-04T08:22:22.973Z,100829.84
2023-05-04T08:25:25.450Z,100835.50
2023-05-04T08:28:28.168Z,100839.81
2023-05-04T08:31:30.635Z,100841.13
2023-05-04T08:34:34.806Z,100842.03
2023-05-04T08:37:37.323Z,100844.44
2023-05-04T08:40:41.439Z,100840.94
2023-05-04T08:43:47.394Z,100844.19
2023-05-04T08:46:53.675Z,100847.66
2023-05-04T08:49:57.668Z,100850.47
2023-05-04T08:53:02.895Z,100847.44
2023-05-04T08:56:07.749Z,100844.69
2023-05-04T08:59:10.648Z,100847.69
2023-05-04T09:02:13.101Z,100849.59
2023-05-04T09:05:17.275Z,100842.91
2023-05-04T09:08:20.884Z,100834.69
2023-05-04T09:11:23.655Z,100840.09
2023-05-04T09:14:32.289Z,100839.44
2023-05-04T09:20:46.737Z,100841.31
2023-05-04T09:23:50.270Z,100840.78
2023-05-04T09:26:52.977Z,100835.44
2023-05-04T09:29:56.554Z,100836.72
2023-05-04T09:32:59.050Z,100829.31
2023-05-04T09:36:14.935Z,100833.31
2023-05-04T09:39:17.380Z,100826.22
2023-05-04T09:42:20.718Z,100820.41
2023-05-04T09:45:23.195Z,100831.28
2023-05-04T09:48:26.984Z,100830.19
2023-05-04T09:51:30.718Z,100813.66
2023-05-04T09:54:38.981Z,100811.38
2023-05-04T09:57:42.492Z,100812.41
2023-05-04T10:00:45.612Z,100807.41
2023-05-04T10:03:48.268Z,100811.47
2023-05-04T10:06:52.454Z,100802.34
2023-05-04T10:09:56.185Z,100798.34
2023-05-04T10:12:58.599Z,100798.63
2023-05-04T10:16:08.724Z,100792.81
2023-05-04T10:19:23.112Z,100782.97
2023-05-04T10:22:36.573Z,100780.66
2023-05-04T10:25:50.831Z,100773.66
2023-05-04T10:28:59.503Z,100775.69
2023-05-04T10:32:02.183Z,100777.38
2023-05-04T10:35:06.225Z,100775.09
2023-05-04T10:38:10.181Z,100764.16
2023-05-04T10:41:16.139Z,100777.41
2023-05-04T10:44:18.580Z,100762.87
2023-05-04T10:47:28.333Z,100769.56
2023-05-04T10:50:41.626Z,100764.59
2023-05-04T10:53:46.204Z,100760.84
2023-05-04T10:56:49.373Z,100759.44
2023-05-04T10:59:57.091Z,100761.25
2023-05-04T11:03:02.901Z,100748.41
2023-05-04T11:06:05.962Z,100740.50
2023-05-04T11:09:12.313Z,100739.38
2023-05-04T11:12:15.049Z,100738.22
2023-05-04T11:15:19.146Z,100741.13
2023-05-04T11:18:28.499Z,100739.78
2023-05-04T11:21:31.823Z,100736.16
2023-05-04T11:24:42.482Z,100723.78
2023-05-04T11:27:44.840Z,100722.94
2023-05-04T11:30:47.769Z,100730.34
2023-05-04T11:33:50.933Z,100727.69
2023-05-04T11:36:54.524Z,100715.31
2023-05-04T11:39:58.812Z,100722.31
2023-05-04T11:43:02.616Z,100714.28
2023-05-04T11:46:05.690Z,100714.28
2023-05-04T11:49:08.334Z,100717.16
2023-05-04T11:52:10.789Z,100715.75
2023-05-04T11:55:25.273Z,100711.78
2023-05-04T11:58:27.987Z,100708.28
2023-05-04T12:01:34.865Z,100699.88
2023-05-04T12:04:37.650Z,100705.63
2023-05-04T12:07:40.182Z,100704.41
2023-05-04T12:10:44.207Z,100707.91
2023-05-04T12:13:48.339Z,100702.72
2023-05-04T12:16:54.285Z,100697.38
2023-05-04T12:19:57.364Z,100693.28
2023-05-04T12:23:05.899Z,100693.88
2023-05-04T12:26:10.413Z,100698.25
2023-05-04T12:29:13.226Z,100687.00
2023-05-04T12:32:16.077Z,100690.72
2023-05-04T12:35:19.000Z,100687.03
2023-05-04T12:38:21.621Z,100681.88
2023-05-04T12:41:25.714Z,100681.59
2023-05-04T12:44:28.189Z,100675.91
2023-05-04T12:47:30.874Z,100676.41
2023-05-04T12:50:33.385Z,100674.25
2023-05-04T12:53:36.842Z,100680.22
2023-05-04T12:56:40.685Z,100677.66
2023-05-04T12:59:43.773Z,100677.47
2023-05-04T13:02:46.364Z,100663.91
2023-05-04T13:05:49.781Z,100663.50
2023-05-04T13:08:52.572Z,100661.72
2023-05-04T13:11:56.611Z,100652.69
2023-05-04T13:14:59.603Z,100655.00
2023-05-04T13:18:02.957Z,100659.59
2023-05-04T13:21:05.511Z,100655.62
2023-05-04T13:24:08.400Z,100656.41
2023-05-04T13:27:12.147Z,100651.13
2023-05-04T13:30:15.089Z,100650.34
2023-05-04T13:33:28.789Z,100635.88
2023-05-04T13:36:32.706Z,100634.66
2023-05-04T13:39:39.499Z,100626.25
2023-05-04T13:42:43.528Z,100624.81
2023-05-04T13:45:46.024Z,100623.59
2023-05-04T13:48:48.748Z,100624.22
2023-05-04T13:51:51.144Z,100615.72
2023-05-04T13:54:54.024Z,100608.44
2023-05-04T13:57:57.820Z,100602.87
2023-05-04T14:01:00.829Z,100607.31
2023-05-04T14:04:03.758Z,100603.16
2023-05-04T14:07:06.161Z,100602.78
2023-05-04T14:10:09.769Z,100602.94
2023-05-04T14:13:13.771Z,100599.16
2023-05-04T14:16:16.622Z,100599.09
2023-05-04T14:19:19.025Z,100596.06
2023-05-04T14:22:21.696Z,100591.41
2023-05-04T14:25:24.178Z,100597.09
2023-05-04T14:28:28.160Z,100581.62
2023-05-04T14:31:30.820Z,100582.94
2023-05-04T14:34:33.660Z,100582.59
2023-05-04T14:37:37.413Z,100582.75
2023-05-04T14:40:40.136Z,100580.72
2023-05-04T14:43:43.982Z,100578.66
2023-05-04T14:46:46.671Z,100583.53
2023-05-04T14:49:49.456Z,100587.88
2023-05-04T14:52:52.147Z,100584.72
2023-05-04T14:55:54.505Z,100591.62
2023-05-04T14:59:01.226Z,100573.63
2023-05-04T15:02:05.649Z,100574.53
2023-05-04T15:05:12.380Z,100573.72
2023-05-04T15:08:14.783Z,100576.91
